NOK275Y VTCC-VVPQ
Flight info
| Callsign | NOK275Y |
|---|---|
| Flight time | 1h 34m |
| Altitude | 37000 |
| Route | PANTA2S PANTA W9 PSL/N0458F390 W9 BKK N891 RYN R334 NUMDI NUMDI1F |
| Aircraft | A20N/M-SDE2E3FGHIRWXY/LB1 |
Departure
| Time | 2026-05-06 12:40 |
|---|---|
| Airport | Chiang Mai International Airport (VTCC) |
Arrival
| Time | 2026-05-06 14:14 |
|---|---|
| Airport | Phú Quốc International Airport (VVPQ) |
| Time | Latitude | Longitude | Altitude | Speed | Heading |
|---|---|---|---|---|---|
| 2026-05-06 12:22 | 18.76978 | 98.96738 | 1031 ft | 0 kts | 91° |
| 2026-05-06 12:33 | 18.76979 | 98.96733 | 1031 ft | 4 kts | 91° |
| 2026-05-06 12:33 | 18.76978 | 98.96704 | 1031 ft | 4 kts | 85° |
| 2026-05-06 12:33 | 18.76974 | 98.96676 | 1031 ft | 4 kts | 73° |
| 2026-05-06 12:33 | 18.76963 | 98.96652 | 1031 ft | 4 kts | 36° |
| 2026-05-06 12:34 | 18.76953 | 98.96646 | 1031 ft | 1 kts | 359° |
| 2026-05-06 12:36 | 18.76981 | 98.96644 | 1031 ft | 9 kts | 351° |
| 2026-05-06 12:36 | 18.77071 | 98.96602 | 1031 ft | 17 kts | 328° |
| 2026-05-06 12:36 | 18.77168 | 98.96524 | 1031 ft | 19 kts | 353° |
| 2026-05-06 12:37 | 18.77306 | 98.96516 | 1031 ft | 21 kts | 360° |
| 2026-05-06 12:37 | 18.77454 | 98.96517 | 1031 ft | 22 kts | 0° |
| 2026-05-06 12:37 | 18.77615 | 98.96518 | 1031 ft | 24 kts | 0° |
| 2026-05-06 12:37 | 18.77784 | 98.96517 | 1031 ft | 25 kts | 0° |
| 2026-05-06 12:38 | 18.77962 | 98.96518 | 1031 ft | 26 kts | 0° |
| 2026-05-06 12:38 | 18.78143 | 98.96495 | 1031 ft | 27 kts | 334° |
| 2026-05-06 12:38 | 18.78296 | 98.96402 | 1031 ft | 22 kts | 329° |
| 2026-05-06 12:38 | 18.78361 | 98.96317 | 1031 ft | 9 kts | 265° |
| 2026-05-06 12:39 | 18.78312 | 98.96294 | 1031 ft | 9 kts | 175° |
| 2026-05-06 12:39 | 18.78114 | 98.96295 | 1031 ft | 61 kts | 180° |
| 2026-05-06 12:39 | 18.77469 | 98.96291 | 1031 ft | 121 kts | 180° |
| 2026-05-06 12:39 | 18.76460 | 98.96291 | 1052 ft | 165 kts | 180° |
| 2026-05-06 12:40 | 18.75320 | 98.96279 | 1690 ft | 158 kts | 181° |
| 2026-05-06 12:40 | 18.74251 | 98.96251 | 2305 ft | 151 kts | 183° |
| 2026-05-06 12:40 | 18.73151 | 98.96205 | 2616 ft | 169 kts | 182° |
| 2026-05-06 12:40 | 18.71920 | 98.96184 | 3000 ft | 184 kts | 180° |
| 2026-05-06 12:41 | 18.70585 | 98.96205 | 3422 ft | 200 kts | 179° |
| 2026-05-06 12:41 | 18.69105 | 98.96221 | 3772 ft | 225 kts | 180° |
| 2026-05-06 12:41 | 18.67463 | 98.96225 | 4245 ft | 246 kts | 180° |
| 2026-05-06 12:41 | 18.65672 | 98.96224 | 4745 ft | 267 kts | 180° |
| 2026-05-06 12:42 | 18.63787 | 98.96223 | 5511 ft | 273 kts | 181° |
| 2026-05-06 12:42 | 18.61874 | 98.96223 | 6388 ft | 277 kts | 181° |
| 2026-05-06 12:42 | 18.59935 | 98.96225 | 7198 ft | 281 kts | 181° |
| 2026-05-06 12:42 | 18.57964 | 98.96227 | 7993 ft | 285 kts | 181° |
| 2026-05-06 12:43 | 18.55961 | 98.96229 | 8792 ft | 290 kts | 181° |
| 2026-05-06 12:43 | 18.53929 | 98.96230 | 9599 ft | 294 kts | 181° |
| 2026-05-06 12:43 | 18.51866 | 98.96270 | 10293 ft | 302 kts | 175° |
| 2026-05-06 12:43 | 18.49789 | 98.96952 | 10549 ft | 328 kts | 152° |
| 2026-05-06 12:44 | 18.47959 | 98.98527 | 10781 ft | 351 kts | 132° |
| 2026-05-06 12:44 | 18.46447 | 99.00588 | 11362 ft | 359 kts | 126° |
| 2026-05-06 12:44 | 18.45009 | 99.02756 | 12093 ft | 362 kts | 126° |
| 2026-05-06 12:44 | 18.43531 | 99.04926 | 12778 ft | 367 kts | 127° |
| 2026-05-06 12:45 | 18.41991 | 99.07086 | 13483 ft | 370 kts | 128° |
| 2026-05-06 12:45 | 18.40401 | 99.09243 | 14108 ft | 374 kts | 128° |
| 2026-05-06 12:45 | 18.37153 | 99.13555 | 15296 ft | 382 kts | 129° |
| 2026-05-06 12:46 | 18.35489 | 99.15754 | 15660 ft | 385 kts | 129° |
| 2026-05-06 12:46 | 18.33818 | 99.17963 | 15765 ft | 386 kts | 129° |
| 2026-05-06 12:46 | 18.32145 | 99.20173 | 15795 ft | 386 kts | 129° |
| 2026-05-06 12:46 | 18.30476 | 99.22379 | 15787 ft | 386 kts | 129° |
| 2026-05-06 12:47 | 18.28805 | 99.24588 | 15787 ft | 385 kts | 129° |
| 2026-05-06 12:47 | 18.27134 | 99.26796 | 15790 ft | 386 kts | 129° |
| 2026-05-06 12:47 | 18.25462 | 99.29006 | 15793 ft | 386 kts | 129° |
| 2026-05-06 12:47 | 18.23700 | 99.31128 | 15833 ft | 387 kts | 136° |
| 2026-05-06 12:48 | 18.21645 | 99.32984 | 16320 ft | 389 kts | 144° |
| 2026-05-06 12:48 | 18.19379 | 99.34549 | 16947 ft | 391 kts | 149° |
| 2026-05-06 12:48 | 18.17059 | 99.36051 | 17501 ft | 395 kts | 149° |
| 2026-05-06 12:48 | 18.14709 | 99.37581 | 18051 ft | 399 kts | 149° |
| 2026-05-06 12:49 | 18.12342 | 99.39123 | 18537 ft | 402 kts | 149° |
| 2026-05-06 12:49 | 18.09961 | 99.40674 | 19035 ft | 404 kts | 149° |
| 2026-05-06 12:49 | 18.07558 | 99.42237 | 19518 ft | 407 kts | 149° |
| 2026-05-06 12:49 | 18.05145 | 99.43805 | 20006 ft | 410 kts | 149° |
| 2026-05-06 12:50 | 18.02708 | 99.45388 | 20483 ft | 413 kts | 149° |
| 2026-05-06 12:50 | 18.00264 | 99.46975 | 20952 ft | 415 kts | 149° |
| 2026-05-06 12:50 | 17.97790 | 99.48580 | 21417 ft | 418 kts | 149° |
| 2026-05-06 12:50 | 17.95309 | 99.50190 | 21891 ft | 421 kts | 149° |
| 2026-05-06 12:51 | 17.92807 | 99.51813 | 22348 ft | 424 kts | 149° |
| 2026-05-06 12:51 | 17.90287 | 99.53451 | 22816 ft | 426 kts | 149° |
| 2026-05-06 12:51 | 17.87756 | 99.55093 | 23257 ft | 429 kts | 149° |
| 2026-05-06 12:51 | 17.85206 | 99.56746 | 23629 ft | 432 kts | 149° |
| 2026-05-06 12:52 | 17.82649 | 99.58422 | 23999 ft | 435 kts | 148° |
| 2026-05-06 12:52 | 17.80083 | 99.60116 | 24362 ft | 437 kts | 148° |
| 2026-05-06 12:52 | 17.77500 | 99.61821 | 24731 ft | 440 kts | 148° |
| 2026-05-06 12:52 | 17.74903 | 99.63535 | 25087 ft | 442 kts | 148° |
| 2026-05-06 12:53 | 17.72293 | 99.65254 | 25434 ft | 444 kts | 148° |
| 2026-05-06 12:53 | 17.69660 | 99.66987 | 25763 ft | 447 kts | 149° |
| 2026-05-06 12:53 | 17.67054 | 99.68701 | 26093 ft | 449 kts | 149° |
| 2026-05-06 12:53 | 17.64364 | 99.70470 | 26442 ft | 452 kts | 149° |
| 2026-05-06 12:54 | 17.61731 | 99.72200 | 26767 ft | 454 kts | 149° |
| 2026-05-06 12:54 | 17.59047 | 99.73963 | 27070 ft | 456 kts | 149° |
| 2026-05-06 12:54 | 17.56349 | 99.75735 | 27387 ft | 459 kts | 149° |
| 2026-05-06 12:54 | 17.53637 | 99.77516 | 27702 ft | 461 kts | 149° |
| 2026-05-06 12:55 | 17.50915 | 99.79302 | 27986 ft | 463 kts | 149° |
| 2026-05-06 12:55 | 17.48184 | 99.81117 | 28289 ft | 465 kts | 148° |
| 2026-05-06 12:55 | 17.45454 | 99.82970 | 28572 ft | 468 kts | 148° |
| 2026-05-06 12:55 | 17.42722 | 99.84832 | 28855 ft | 470 kts | 148° |
| 2026-05-06 12:56 | 17.39972 | 99.86703 | 29132 ft | 472 kts | 148° |
| 2026-05-06 12:56 | 17.37211 | 99.88576 | 29416 ft | 474 kts | 148° |
| 2026-05-06 12:56 | 17.34439 | 99.90453 | 29693 ft | 476 kts | 148° |
| 2026-05-06 12:56 | 17.31650 | 99.92340 | 29942 ft | 478 kts | 148° |
| 2026-05-06 12:57 | 17.28849 | 99.94233 | 30200 ft | 480 kts | 148° |
| 2026-05-06 12:57 | 17.26040 | 99.96130 | 30443 ft | 482 kts | 148° |
| 2026-05-06 12:57 | 17.23254 | 99.98012 | 30677 ft | 484 kts | 148° |
| 2026-05-06 12:57 | 17.20422 | 99.99923 | 30968 ft | 484 kts | 148° |
| 2026-05-06 12:58 | 17.17594 | 100.01832 | 31305 ft | 484 kts | 148° |
| 2026-05-06 12:58 | 17.14766 | 100.03740 | 31647 ft | 483 kts | 148° |
| 2026-05-06 12:58 | 17.11947 | 100.05642 | 31993 ft | 482 kts | 148° |
| 2026-05-06 12:58 | 17.09131 | 100.07541 | 32324 ft | 481 kts | 148° |
| 2026-05-06 12:59 | 17.06321 | 100.09435 | 32645 ft | 480 kts | 148° |
| 2026-05-06 12:59 | 17.03512 | 100.11328 | 32984 ft | 479 kts | 148° |
| 2026-05-06 12:59 | 17.00711 | 100.13214 | 33313 ft | 478 kts | 148° |
| 2026-05-06 12:59 | 16.97919 | 100.15094 | 33627 ft | 477 kts | 148° |
| 2026-05-06 13:00 | 16.95127 | 100.16973 | 33915 ft | 476 kts | 148° |
| 2026-05-06 13:00 | 16.92345 | 100.18845 | 34184 ft | 475 kts | 148° |
| 2026-05-06 13:00 | 16.89562 | 100.20716 | 34447 ft | 474 kts | 148° |
| 2026-05-06 13:00 | 16.86797 | 100.22575 | 34713 ft | 473 kts | 148° |
| 2026-05-06 13:01 | 16.84030 | 100.24435 | 34964 ft | 472 kts | 148° |
| 2026-05-06 13:01 | 16.81267 | 100.26285 | 35215 ft | 471 kts | 149° |
| 2026-05-06 13:01 | 16.78384 | 100.27803 | 35449 ft | 469 kts | 160° |
| 2026-05-06 13:01 | 16.75270 | 100.28777 | 35683 ft | 467 kts | 170° |
| 2026-05-06 13:02 | 16.72053 | 100.29170 | 35907 ft | 465 kts | 180° |
| 2026-05-06 13:02 | 16.68823 | 100.29178 | 36138 ft | 464 kts | 181° |
| 2026-05-06 13:02 | 16.65596 | 100.29183 | 36374 ft | 463 kts | 181° |
| 2026-05-06 13:02 | 16.62370 | 100.29194 | 36610 ft | 463 kts | 181° |
| 2026-05-06 13:03 | 16.59154 | 100.29206 | 36758 ft | 462 kts | 181° |
| 2026-05-06 13:03 | 16.52736 | 100.29233 | 36777 ft | 460 kts | 181° |
| 2026-05-06 13:04 | 16.46320 | 100.29259 | 36788 ft | 461 kts | 181° |
| 2026-05-06 13:04 | 16.39909 | 100.29285 | 36783 ft | 460 kts | 180° |
| 2026-05-06 13:05 | 16.33501 | 100.29313 | 36790 ft | 460 kts | 181° |
| 2026-05-06 13:05 | 16.27092 | 100.29337 | 36787 ft | 461 kts | 181° |
| 2026-05-06 13:06 | 16.20706 | 100.29362 | 36797 ft | 462 kts | 181° |
| 2026-05-06 13:06 | 16.14271 | 100.29389 | 36794 ft | 462 kts | 181° |
| 2026-05-06 13:07 | 16.07830 | 100.29415 | 36796 ft | 463 kts | 181° |
| 2026-05-06 13:07 | 16.01388 | 100.29442 | 36817 ft | 463 kts | 181° |
| 2026-05-06 13:08 | 15.94946 | 100.29469 | 36799 ft | 462 kts | 180° |
| 2026-05-06 13:08 | 15.88511 | 100.29497 | 36801 ft | 462 kts | 180° |
| 2026-05-06 13:09 | 15.82080 | 100.29523 | 36802 ft | 462 kts | 180° |
| 2026-05-06 13:09 | 15.75682 | 100.29550 | 36804 ft | 462 kts | 180° |
| 2026-05-06 13:10 | 15.69216 | 100.29576 | 36802 ft | 462 kts | 180° |
| 2026-05-06 13:10 | 15.62829 | 100.29603 | 36805 ft | 461 kts | 180° |
| 2026-05-06 13:11 | 15.56405 | 100.29630 | 36806 ft | 461 kts | 180° |
| 2026-05-06 13:11 | 15.49994 | 100.29657 | 36796 ft | 461 kts | 180° |
| 2026-05-06 13:12 | 15.43574 | 100.29684 | 36805 ft | 461 kts | 180° |
| 2026-05-06 13:12 | 15.37160 | 100.29710 | 36802 ft | 461 kts | 180° |
| 2026-05-06 13:13 | 15.30744 | 100.29739 | 36807 ft | 461 kts | 179° |
| 2026-05-06 13:13 | 15.24373 | 100.30431 | 36803 ft | 461 kts | 169° |
| 2026-05-06 13:14 | 15.18134 | 100.31807 | 36798 ft | 461 kts | 168° |
| 2026-05-06 13:14 | 15.11852 | 100.33173 | 36809 ft | 461 kts | 168° |
| 2026-05-06 13:15 | 15.05563 | 100.34536 | 36820 ft | 462 kts | 168° |
| 2026-05-06 13:15 | 14.99265 | 100.35902 | 36825 ft | 462 kts | 168° |
| 2026-05-06 13:16 | 14.92982 | 100.37265 | 36827 ft | 462 kts | 168° |
| 2026-05-06 13:16 | 14.86695 | 100.38627 | 36829 ft | 461 kts | 168° |
| 2026-05-06 13:17 | 14.80405 | 100.39989 | 36834 ft | 461 kts | 168° |
| 2026-05-06 13:17 | 14.74128 | 100.41348 | 36835 ft | 461 kts | 168° |
| 2026-05-06 13:18 | 14.67848 | 100.42706 | 36836 ft | 460 kts | 169° |
| 2026-05-06 13:18 | 14.62631 | 100.43834 | 36837 ft | 460 kts | 168° |
| 2026-05-06 13:19 | 14.56375 | 100.45186 | 36836 ft | 459 kts | 168° |
| 2026-05-06 13:19 | 14.50120 | 100.46537 | 36835 ft | 459 kts | 168° |
| 2026-05-06 13:20 | 14.43877 | 100.47885 | 36833 ft | 458 kts | 168° |
| 2026-05-06 13:20 | 14.37635 | 100.49231 | 36832 ft | 457 kts | 168° |
| 2026-05-06 13:21 | 14.31457 | 100.50562 | 36831 ft | 456 kts | 168° |
| 2026-05-06 13:21 | 14.25242 | 100.51900 | 36834 ft | 456 kts | 168° |
| 2026-05-06 13:22 | 14.19029 | 100.53238 | 36830 ft | 455 kts | 168° |
| 2026-05-06 13:22 | 14.12948 | 100.54547 | 36829 ft | 455 kts | 168° |
| 2026-05-06 13:23 | 14.06753 | 100.55880 | 36830 ft | 454 kts | 168° |
| 2026-05-06 13:23 | 14.00567 | 100.57212 | 36826 ft | 454 kts | 168° |
| 2026-05-06 13:24 | 13.94392 | 100.58571 | 36826 ft | 454 kts | 165° |
| 2026-05-06 13:24 | 13.88597 | 100.61098 | 36823 ft | 454 kts | 149° |
| 2026-05-06 13:25 | 13.83672 | 100.65155 | 36809 ft | 455 kts | 137° |
| 2026-05-06 13:25 | 13.79127 | 100.69618 | 36808 ft | 455 kts | 137° |
| 2026-05-06 13:26 | 13.74533 | 100.74103 | 36809 ft | 455 kts | 137° |
| 2026-05-06 13:26 | 13.69938 | 100.78585 | 36818 ft | 455 kts | 137° |
| 2026-05-06 13:27 | 13.65335 | 100.83075 | 36822 ft | 456 kts | 137° |
| 2026-05-06 13:27 | 13.60733 | 100.87561 | 36823 ft | 456 kts | 137° |
| 2026-05-06 13:28 | 13.56124 | 100.92052 | 36828 ft | 457 kts | 137° |
| 2026-05-06 13:28 | 13.51510 | 100.96545 | 36832 ft | 457 kts | 137° |
| 2026-05-06 13:29 | 13.46887 | 101.01044 | 36837 ft | 458 kts | 137° |
| 2026-05-06 13:29 | 13.42256 | 101.05549 | 36842 ft | 458 kts | 137° |
| 2026-05-06 13:30 | 13.37659 | 101.10018 | 36841 ft | 458 kts | 137° |
| 2026-05-06 13:30 | 13.33024 | 101.14522 | 36845 ft | 458 kts | 137° |
| 2026-05-06 13:31 | 13.28392 | 101.19019 | 36844 ft | 458 kts | 137° |
| 2026-05-06 13:31 | 13.23747 | 101.23502 | 36844 ft | 459 kts | 137° |
| 2026-05-06 13:32 | 13.19093 | 101.27986 | 36840 ft | 459 kts | 137° |
| 2026-05-06 13:32 | 13.14440 | 101.32469 | 36842 ft | 459 kts | 137° |
| 2026-05-06 13:33 | 13.09781 | 101.36958 | 36844 ft | 459 kts | 137° |
| 2026-05-06 13:33 | 13.05126 | 101.41440 | 36847 ft | 459 kts | 137° |
| 2026-05-06 13:34 | 13.00471 | 101.45919 | 36845 ft | 459 kts | 137° |
| 2026-05-06 13:34 | 12.95810 | 101.50403 | 36849 ft | 459 kts | 137° |
| 2026-05-06 13:35 | 12.91180 | 101.54853 | 36853 ft | 459 kts | 137° |
| 2026-05-06 13:35 | 12.86521 | 101.59330 | 36857 ft | 459 kts | 138° |
| 2026-05-06 13:36 | 12.81853 | 101.63812 | 36858 ft | 459 kts | 138° |
| 2026-05-06 13:36 | 12.77245 | 101.68339 | 36858 ft | 460 kts | 134° |
| 2026-05-06 13:37 | 12.72984 | 101.73226 | 36856 ft | 460 kts | 133° |
| 2026-05-06 13:37 | 12.68722 | 101.78107 | 36858 ft | 460 kts | 133° |
| 2026-05-06 13:38 | 12.64457 | 101.82986 | 36864 ft | 459 kts | 133° |
| 2026-05-06 13:38 | 12.60191 | 101.87862 | 36865 ft | 459 kts | 133° |
| 2026-05-06 13:39 | 12.55930 | 101.92732 | 36868 ft | 459 kts | 133° |
| 2026-05-06 13:39 | 12.51667 | 101.97602 | 36868 ft | 459 kts | 132° |
| 2026-05-06 13:40 | 12.47437 | 102.02430 | 36871 ft | 458 kts | 133° |
| 2026-05-06 13:40 | 12.43179 | 102.07286 | 36868 ft | 458 kts | 132° |
| 2026-05-06 13:41 | 12.38923 | 102.12139 | 36863 ft | 457 kts | 133° |
| 2026-05-06 13:41 | 12.34677 | 102.16979 | 36863 ft | 457 kts | 133° |
| 2026-05-06 13:42 | 12.30428 | 102.21818 | 36863 ft | 457 kts | 133° |
| 2026-05-06 13:42 | 12.26179 | 102.26657 | 36862 ft | 457 kts | 133° |
| 2026-05-06 13:43 | 12.21931 | 102.31491 | 36861 ft | 457 kts | 133° |
| 2026-05-06 13:43 | 12.17678 | 102.36328 | 36862 ft | 457 kts | 133° |
| 2026-05-06 13:44 | 12.13453 | 102.41130 | 36861 ft | 457 kts | 133° |
| 2026-05-06 13:44 | 12.09200 | 102.45962 | 36865 ft | 457 kts | 133° |
| 2026-05-06 13:45 | 12.04942 | 102.50798 | 36868 ft | 457 kts | 133° |
| 2026-05-06 13:45 | 11.98554 | 102.58047 | 36873 ft | 458 kts | 133° |
| 2026-05-06 13:46 | 11.94290 | 102.62884 | 36877 ft | 458 kts | 133° |
| 2026-05-06 13:46 | 11.90017 | 102.67727 | 36884 ft | 458 kts | 133° |
| 2026-05-06 13:47 | 11.85748 | 102.72565 | 36885 ft | 459 kts | 133° |
| 2026-05-06 13:47 | 11.81478 | 102.77400 | 36886 ft | 459 kts | 133° |
| 2026-05-06 13:48 | 11.77233 | 102.82204 | 36883 ft | 459 kts | 133° |
| 2026-05-06 13:48 | 11.72956 | 102.87043 | 36890 ft | 459 kts | 133° |
| 2026-05-06 13:49 | 11.68684 | 102.91873 | 36887 ft | 458 kts | 133° |
| 2026-05-06 13:49 | 11.64406 | 102.96695 | 36885 ft | 458 kts | 134° |
| 2026-05-06 13:50 | 11.59654 | 103.01004 | 36880 ft | 457 kts | 144° |
| 2026-05-06 13:50 | 11.54319 | 103.04509 | 36877 ft | 456 kts | 149° |
| 2026-05-06 13:51 | 11.48909 | 103.07907 | 36878 ft | 456 kts | 148° |
| 2026-05-06 13:51 | 11.43506 | 103.11306 | 36875 ft | 456 kts | 148° |
| 2026-05-06 13:52 | 11.38100 | 103.14702 | 36875 ft | 456 kts | 148° |
| 2026-05-06 13:52 | 11.32707 | 103.18087 | 36874 ft | 456 kts | 148° |
| 2026-05-06 13:53 | 11.27337 | 103.21456 | 36872 ft | 455 kts | 148° |
| 2026-05-06 13:53 | 11.21943 | 103.24838 | 36874 ft | 455 kts | 148° |
| 2026-05-06 13:54 | 11.16553 | 103.28218 | 36874 ft | 455 kts | 148° |
| 2026-05-06 13:54 | 11.11171 | 103.31590 | 36870 ft | 454 kts | 148° |
| 2026-05-06 13:55 | 11.05789 | 103.34961 | 36868 ft | 454 kts | 148° |
| 2026-05-06 13:55 | 11.00441 | 103.38307 | 36868 ft | 453 kts | 148° |
| 2026-05-06 13:56 | 10.95071 | 103.41665 | 36862 ft | 453 kts | 148° |
| 2026-05-06 13:56 | 10.89708 | 103.45018 | 36863 ft | 452 kts | 148° |
| 2026-05-06 13:57 | 10.84352 | 103.48366 | 36753 ft | 450 kts | 148° |
| 2026-05-06 13:57 | 10.81684 | 103.50033 | 36229 ft | 451 kts | 148° |
| 2026-05-06 13:57 | 10.78992 | 103.51714 | 35355 ft | 457 kts | 148° |
| 2026-05-06 13:58 | 10.76249 | 103.53426 | 34300 ft | 467 kts | 148° |
| 2026-05-06 13:58 | 10.73450 | 103.55173 | 33168 ft | 476 kts | 148° |
| 2026-05-06 13:58 | 10.70613 | 103.56943 | 32185 ft | 479 kts | 148° |
| 2026-05-06 13:58 | 10.67767 | 103.58719 | 31263 ft | 481 kts | 148° |
| 2026-05-06 13:59 | 10.64912 | 103.60500 | 30516 ft | 479 kts | 148° |
| 2026-05-06 13:59 | 10.62082 | 103.62266 | 29799 ft | 477 kts | 148° |
| 2026-05-06 13:59 | 10.59308 | 103.64113 | 28855 ft | 476 kts | 143° |
| 2026-05-06 13:59 | 10.56743 | 103.66247 | 27851 ft | 478 kts | 137° |
| 2026-05-06 14:00 | 10.54290 | 103.68545 | 26814 ft | 480 kts | 137° |
| 2026-05-06 14:00 | 10.51825 | 103.70845 | 25778 ft | 482 kts | 137° |
| 2026-05-06 14:00 | 10.49380 | 103.73120 | 24734 ft | 484 kts | 137° |
| 2026-05-06 14:00 | 10.46857 | 103.75467 | 23718 ft | 486 kts | 137° |
| 2026-05-06 14:01 | 10.44401 | 103.77751 | 22825 ft | 482 kts | 137° |
| 2026-05-06 14:01 | 10.41949 | 103.80039 | 22018 ft | 475 kts | 137° |
| 2026-05-06 14:01 | 10.39535 | 103.82304 | 21204 ft | 469 kts | 136° |
| 2026-05-06 14:01 | 10.37155 | 103.84541 | 20402 ft | 464 kts | 136° |
| 2026-05-06 14:02 | 10.34803 | 103.86752 | 19614 ft | 458 kts | 136° |
| 2026-05-06 14:02 | 10.32475 | 103.88939 | 18835 ft | 454 kts | 136° |
| 2026-05-06 14:02 | 10.30171 | 103.91102 | 18093 ft | 449 kts | 136° |
| 2026-05-06 14:02 | 10.27892 | 103.93237 | 17278 ft | 443 kts | 136° |
| 2026-05-06 14:03 | 10.25639 | 103.95347 | 16521 ft | 437 kts | 136° |
| 2026-05-06 14:03 | 10.23417 | 103.97428 | 15765 ft | 432 kts | 136° |
| 2026-05-06 14:03 | 10.21227 | 103.99480 | 15159 ft | 424 kts | 136° |
| 2026-05-06 14:03 | 10.19107 | 104.01466 | 14964 ft | 405 kts | 136° |
| 2026-05-06 14:04 | 10.17079 | 104.03364 | 14723 ft | 390 kts | 136° |
| 2026-05-06 14:04 | 10.15121 | 104.05235 | 14177 ft | 384 kts | 134° |
| 2026-05-06 14:04 | 10.13157 | 104.07059 | 13580 ft | 382 kts | 143° |
| 2026-05-06 14:04 | 10.10798 | 104.08274 | 12945 ft | 382 kts | 161° |
| 2026-05-06 14:05 | 10.08186 | 104.08699 | 12326 ft | 382 kts | 179° |
| 2026-05-06 14:05 | 10.05576 | 104.08283 | 11731 ft | 381 kts | 197° |
| 2026-05-06 14:05 | 10.03220 | 104.07058 | 11138 ft | 382 kts | 216° |
| 2026-05-06 14:05 | 10.01393 | 104.05170 | 10587 ft | 381 kts | 235° |
| 2026-05-06 14:06 | 10.00306 | 104.02781 | 10389 ft | 367 kts | 256° |
| 2026-05-06 14:06 | 10.00112 | 104.00261 | 10243 ft | 352 kts | 277° |
| 2026-05-06 14:06 | 10.00796 | 103.97951 | 10113 ft | 336 kts | 297° |
| 2026-05-06 14:06 | 10.01861 | 103.95892 | 9989 ft | 323 kts | 299° |
| 2026-05-06 14:07 | 10.02837 | 103.93881 | 9773 ft | 314 kts | 295° |
| 2026-05-06 14:07 | 10.03656 | 103.91835 | 9370 ft | 312 kts | 291° |
| 2026-05-06 14:07 | 10.04126 | 103.90456 | 9095 ft | 311 kts | 289° |
| 2026-05-06 14:07 | 10.04765 | 103.88361 | 8679 ft | 310 kts | 287° |
| 2026-05-06 14:08 | 10.05349 | 103.86297 | 8550 ft | 298 kts | 287° |
| 2026-05-06 14:08 | 10.05895 | 103.84317 | 8437 ft | 285 kts | 287° |
| 2026-05-06 14:08 | 10.06445 | 103.82427 | 8331 ft | 273 kts | 294° |
| 2026-05-06 14:08 | 10.07508 | 103.80933 | 8231 ft | 254 kts | 327° |
| 2026-05-06 14:09 | 10.09050 | 103.80185 | 7991 ft | 243 kts | 354° |
| 2026-05-06 14:09 | 10.10711 | 103.80194 | 7633 ft | 239 kts | 12° |
| 2026-05-06 14:09 | 10.12359 | 103.80391 | 7326 ft | 238 kts | 11° |
| 2026-05-06 14:09 | 10.13986 | 103.80572 | 6826 ft | 232 kts | 10° |
| 2026-05-06 14:10 | 10.15580 | 103.80729 | 6162 ft | 228 kts | 10° |
| 2026-05-06 14:10 | 10.17069 | 103.81131 | 5450 ft | 217 kts | 37° |
| 2026-05-06 14:10 | 10.18027 | 103.82241 | 4769 ft | 208 kts | 68° |
| 2026-05-06 14:10 | 10.18366 | 103.83654 | 4068 ft | 206 kts | 86° |
| 2026-05-06 14:11 | 10.18356 | 103.85102 | 3375 ft | 205 kts | 94° |
| 2026-05-06 14:11 | 10.18205 | 103.86541 | 2514 ft | 205 kts | 98° |
| 2026-05-06 14:11 | 10.18009 | 103.88033 | 1349 ft | 220 kts | 97° |
| 2026-05-06 14:11 | 10.17934 | 103.89555 | 939 ft | 206 kts | 94° |
| 2026-05-06 14:12 | 10.17806 | 103.90923 | 824 ft | 183 kts | 96° |
| 2026-05-06 14:12 | 10.17691 | 103.92130 | 777 ft | 160 kts | 96° |
| 2026-05-06 14:12 | 10.17589 | 103.93159 | 722 ft | 137 kts | 97° |
| 2026-05-06 14:12 | 10.17492 | 103.94052 | 638 ft | 127 kts | 98° |
| 2026-05-06 14:13 | 10.17388 | 103.95010 | 658 ft | 142 kts | 97° |
| 2026-05-06 14:13 | 10.17317 | 103.96000 | 474 ft | 135 kts | 95° |
| 2026-05-06 14:13 | 10.17228 | 103.96949 | 316 ft | 138 kts | 99° |
| 2026-05-06 14:13 | 10.17123 | 103.97908 | 150 ft | 135 kts | 96° |
| 2026-05-06 14:14 | 10.17036 | 103.98821 | 66 ft | 119 kts | 95° |
| 2026-05-06 14:14 | 10.16971 | 103.99454 | 62 ft | 61 kts | 95° |
| 2026-05-06 14:14 | 10.16940 | 103.99758 | 64 ft | 39 kts | 98° |
| 2026-05-06 14:14 | 10.16857 | 103.99996 | 58 ft | 26 kts | 124° |
| 2026-05-06 14:15 | 10.16784 | 104.00091 | 64 ft | 18 kts | 132° |
| 2026-05-06 14:15 | 10.16668 | 104.00164 | 61 ft | 21 kts | 176° |
| 2026-05-06 14:15 | 10.16513 | 104.00142 | 61 ft | 23 kts | 201° |
| 2026-05-06 14:15 | 10.16493 | 104.00055 | 62 ft | 10 kts | 288° |
| 2026-05-06 14:16 | 10.16441 | 104.00019 | 65 ft | 11 kts | 187° |
| 2026-05-06 14:16 | 10.16384 | 104.00014 | 63 ft | 0 kts | 185° |